sensor_id;sensor_type;location;lat;lon;timestamp;pressure;altitude;pressure_sealevel;temperature;humidity
13709;BME280;54933;51.908;7.730;2023-12-04T00:01:31;100877.19;;;21.38;55.13
13709;BME280;54933;51.908;7.730;2023-12-04T00:03:56;100883.22;;;21.40;55.05
13709;BME280;54933;51.908;7.730;2023-12-04T00:06:22;100878.66;;;21.34;54.90
13709;BME280;54933;51.908;7.730;2023-12-04T00:08:47;100874.16;;;21.22;55.11
13709;BME280;54933;51.908;7.730;2023-12-04T00:11:13;100876.25;;;21.13;55.09
13709;BME280;54933;51.908;7.730;2023-12-04T00:13:38;100877.97;;;21.08;55.22
13709;BME280;54933;51.908;7.730;2023-12-04T00:16:03;100866.13;;;21.02;55.51
13709;BME280;54933;51.908;7.730;2023-12-04T00:18:29;100874.91;;;20.98;56.09
13709;BME280;54933;51.908;7.730;2023-12-04T00:20:54;100863.88;;;20.99;55.88
13709;BME280;54933;51.908;7.730;2023-12-04T00:23:19;100863.88;;;20.99;55.79
13709;BME280;54933;51.908;7.730;2023-12-04T00:25:45;100863.88;;;20.99;56.04
13709;BME280;54933;51.908;7.730;2023-12-04T00:28:10;100860.13;;;21.00;55.88
13709;BME280;54933;51.908;7.730;2023-12-04T00:30:35;100855.34;;;21.02;56.20
13709;BME280;54933;51.908;7.730;2023-12-04T00:33:00;100852.63;;;21.02;55.94
13709;BME280;54933;51.908;7.730;2023-12-04T00:35:26;100841.81;;;21.02;56.00
13709;BME280;54933;51.908;7.730;2023-12-04T00:37:51;100844.09;;;21.05;56.20
13709;BME280;54933;51.908;7.730;2023-12-04T00:40:16;100844.75;;;21.01;55.84
13709;BME280;54933;51.908;7.730;2023-12-04T00:42:41;100840.78;;;20.97;56.08
13709;BME280;54933;51.908;7.730;2023-12-04T00:45:07;100846.38;;;20.95;55.93
13709;BME280;54933;51.908;7.730;2023-12-04T00:47:32;100825.44;;;20.97;56.18
13709;BME280;54933;51.908;7.730;2023-12-04T00:49:58;100827.06;;;20.98;56.11
13709;BME280;54933;51.908;7.730;2023-12-04T00:52:23;100826.06;;;20.99;56.07
13709;BME280;54933;51.908;7.730;2023-12-04T00:54:48;100821.44;;;21.00;56.10
13709;BME280;54933;51.908;7.730;2023-12-04T00:57:14;100815.03;;;21.01;56.02
13709;BME280;54933;51.908;7.730;2023-12-04T00:59:39;100814.81;;;21.02;55.88
13709;BME280;54933;51.908;7.730;2023-12-04T01:02:06;100817.28;;;21.04;56.09
13709;BME280;54933;51.908;7.730;2023-12-04T01:04:32;100810.63;;;21.06;56.16
13709;BME280;54933;51.908;7.730;2023-12-04T01:06:57;100811.22;;;21.08;55.89
13709;BME280;54933;51.908;7.730;2023-12-04T01:09:22;100813.94;;;21.08;55.83
13709;BME280;54933;51.908;7.730;2023-12-04T01:11:53;100806.44;;;21.10;55.95
13709;BME280;54933;51.908;7.730;2023-12-04T01:14:18;100803.94;;;21.15;55.97
13709;BME280;54933;51.908;7.730;2023-12-04T01:16:44;100798.53;;;21.15;55.64
13709;BME280;54933;51.908;7.730;2023-12-04T01:19:09;100792.69;;;21.18;55.58
13709;BME280;54933;51.908;7.730;2023-12-04T01:21:35;100795.16;;;21.20;55.59
13709;BME280;54933;51.908;7.730;2023-12-04T01:24:00;100794.94;;;21.21;55.50
13709;BME280;54933;51.908;7.730;2023-12-04T01:26:25;100791.81;;;21.24;55.29
13709;BME280;54933;51.908;7.730;2023-12-04T01:28:50;100786.00;;;21.27;55.38
13709;BME280;54933;51.908;7.730;2023-12-04T01:31:15;100794.09;;;21.27;55.12
13709;BME280;54933;51.908;7.730;2023-12-04T01:33:41;100781.38;;;21.28;55.29
13709;BME280;54933;51.908;7.730;2023-12-04T01:36:06;100769.34;;;21.30;55.06
13709;BME280;54933;51.908;7.730;2023-12-04T01:38:32;100769.09;;;21.32;55.09
13709;BME280;54933;51.908;7.730;2023-12-04T01:40:57;100771.38;;;21.35;55.12
13709;BME280;54933;51.908;7.730;2023-12-04T01:43:22;100770.09;;;21.37;54.90
13709;BME280;54933;51.908;7.730;2023-12-04T01:45:49;100770.31;;;21.36;54.95
13709;BME280;54933;51.908;7.730;2023-12-04T01:48:14;100760.13;;;21.38;54.69
13709;BME280;54933;51.908;7.730;2023-12-04T01:50:40;100761.56;;;21.40;54.56
13709;BME280;54933;51.908;7.730;2023-12-04T01:53:05;100745.94;;;21.42;54.79
13709;BME280;54933;51.908;7.730;2023-12-04T01:55:32;100741.38;;;21.43;54.86
13709;BME280;54933;51.908;7.730;2023-12-04T01:58:00;100742.19;;;21.43;54.58
13709;BME280;54933;51.908;7.730;2023-12-04T02:00:26;100733.03;;;21.44;54.48
13709;BME280;54933;51.908;7.730;2023-12-04T02:02:51;100737.19;;;21.47;54.47
13709;BME280;54933;51.908;7.730;2023-12-04T02:05:17;100735.06;;;21.49;54.35
13709;BME280;54933;51.908;7.730;2023-12-04T02:07:43;100736.75;;;21.50;54.55
13709;BME280;54933;51.908;7.730;2023-12-04T02:10:09;100728.41;;;21.51;54.62
13709;BME280;54933;51.908;7.730;2023-12-04T02:12:34;100728.19;;;21.53;54.40
13709;BME280;54933;51.908;7.730;2023-12-04T02:15:00;100717.13;;;21.54;54.17
13709;BME280;54933;51.908;7.730;2023-12-04T02:17:26;100715.06;;;21.57;54.06
13709;BME280;54933;51.908;7.730;2023-12-04T02:19:52;100709.66;;;21.57;54.08
13709;BME280;54933;51.908;7.730;2023-12-04T02:22:18;100714.81;;;21.58;54.27
13709;BME280;54933;51.908;7.730;2023-12-04T02:24:44;100709.41;;;21.58;54.30
13709;BME280;54933;51.908;7.730;2023-12-04T02:27:47;100708.13;;;21.61;53.90
13709;BME280;54933;51.908;7.730;2023-12-04T02:30:16;100701.69;;;21.62;54.29
13709;BME280;54933;51.908;7.730;2023-12-04T02:32:45;100701.69;;;21.62;54.14
13709;BME280;54933;51.908;7.730;2023-12-04T02:35:12;100701.69;;;21.62;54.08
13709;BME280;54933;51.908;7.730;2023-12-04T02:37:40;100707.69;;;21.64;53.95
13709;BME280;54933;51.908;7.730;2023-12-04T02:40:06;100691.22;;;21.65;54.10
13709;BME280;54933;51.908;7.730;2023-12-04T02:42:31;100695.63;;;21.66;53.96
13709;BME280;54933;51.908;7.730;2023-12-04T02:44:57;100691.22;;;21.65;53.95
13709;BME280;54933;51.908;7.730;2023-12-04T02:47:22;100691.03;;;21.67;54.01
13709;BME280;54933;51.908;7.730;2023-12-04T02:49:47;100691.63;;;21.69;53.85
13709;BME280;54933;51.908;7.730;2023-12-04T02:52:12;100684.56;;;21.68;54.06
13709;BME280;54933;51.908;7.730;2023-12-04T02:54:38;100682.47;;;21.70;53.74
13709;BME280;54933;51.908;7.730;2023-12-04T02:57:03;100677.06;;;21.70;53.91
13709;BME280;54933;51.908;7.730;2023-12-04T02:59:28;100674.38;;;21.70;53.94
13709;BME280;54933;51.908;7.730;2023-12-04T03:01:54;100674.94;;;21.72;53.88
13709;BME280;54933;51.908;7.730;2023-12-04T03:04:19;100668.72;;;21.71;53.77
13709;BME280;54933;51.908;7.730;2023-12-04T03:06:45;100664.97;;;21.72;53.57
13709;BME280;54933;51.908;7.730;2023-12-04T03:09:10;100667.44;;;21.74;53.91
13709;BME280;54933;51.908;7.730;2023-12-04T03:11:39;100659.09;;;21.75;53.81
13709;BME280;54933;51.908;7.730;2023-12-04T03:14:04;100657.69;;;21.73;53.92
13709;BME280;54933;51.908;7.730;2023-12-04T03:16:30;100652.88;;;21.75;53.65
13709;BME280;54933;51.908;7.730;2023-12-04T03:18:55;100643.72;;;21.76;53.90
13709;BME280;54933;51.908;7.730;2023-12-04T03:21:20;100641.00;;;21.76;53.87
13709;BME280;54933;51.908;7.730;2023-12-04T03:23:45;100642.69;;;21.77;53.54
13709;BME280;54933;51.908;7.730;2023-12-04T03:26:11;100642.69;;;21.77;53.69
13709;BME280;54933;51.908;7.730;2023-12-04T03:28:38;100636.25;;;21.78;53.69
13709;BME280;54933;51.908;7.730;2023-12-04T03:31:03;100630.81;;;21.78;53.75
13709;BME280;54933;51.908;7.730;2023-12-04T03:33:29;100630.81;;;21.78;53.74
13709;BME280;54933;51.908;7.730;2023-12-04T03:35:54;100627.06;;;21.79;53.77
13709;BME280;54933;51.908;7.730;2023-12-04T03:38:19;100633.31;;;21.79;53.87
13709;BME280;54933;51.908;7.730;2023-12-04T03:40:44;100622.47;;;21.79;53.74
13709;BME280;54933;51.908;7.730;2023-12-04T03:43:10;100612.69;;;21.78;53.76
13709;BME280;54933;51.908;7.730;2023-12-04T03:45:35;100611.66;;;21.79;53.48
13709;BME280;54933;51.908;7.730;2023-12-04T03:48:00;100609.78;;;21.80;53.60
13709;BME280;54933;51.908;7.730;2023-12-04T03:50:25;100601.69;;;21.80;53.57
13709;BME280;54933;51.908;7.730;2023-12-04T03:52:51;100605.19;;;21.80;53.33
13709;BME280;54933;51.908;7.730;2023-12-04T03:55:16;100604.97;;;21.82;53.44
13709;BME280;54933;51.908;7.730;2023-12-04T03:57:44;100603.31;;;21.81;53.80
13709;BME280;54933;51.908;7.730;2023-12-04T04:00:10;100592.50;;;21.81;53.34
13709;BME280;54933;51.908;7.730;2023-12-04T04:02:35;100591.44;;;21.82;53.54
13709;BME280;54933;51.908;7.730;2023-12-04T04:05:01;100592.50;;;21.81;53.41
13709;BME280;54933;51.908;7.730;2023-12-04T04:07:26;100587.94;;;21.81;53.11
13709;BME280;54933;51.908;7.730;2023-12-04T04:09:51;100587.09;;;21.81;53.22
13709;BME280;54933;51.908;7.730;2023-12-04T04:12:17;100590.41;;;21.83;53.19
13709;BME280;54933;51.908;7.730;2023-12-04T04:14:42;100585.81;;;21.83;53.48
13709;BME280;54933;51.908;7.730;2023-12-04T04:17:07;100584.75;;;21.84;53.01
13709;BME280;54933;51.908;7.730;2023-12-04T04:19:33;100581.22;;;21.84;53.36
13709;BME280;54933;51.908;7.730;2023-12-04T04:21:58;100576.66;;;21.84;53.17
13709;BME280;54933;51.908;7.730;2023-12-04T04:24:23;100576.28;;;21.81;53.20
13709;BME280;54933;51.908;7.730;2023-12-04T04:26:49;100577.88;;;21.64;53.87
13709;BME280;54933;51.908;7.730;2023-12-04T04:29:15;100567.22;;;21.50;53.38
13709;BME280;54933;51.908;7.730;2023-12-04T04:31:40;100574.59;;;21.43;53.74
13709;BME280;54933;51.908;7.730;2023-12-04T04:34:05;100576.69;;;21.41;53.92
13709;BME280;54933;51.908;7.730;2023-12-04T04:36:30;100567.97;;;21.39;54.14
13709;BME280;54933;51.908;7.730;2023-12-04T04:38:56;100578.16;;;21.37;54.13
13709;BME280;54933;51.908;7.730;2023-12-04T04:41:21;100570.06;;;21.37;54.45
13709;BME280;54933;51.908;7.730;2023-12-04T04:43:46;100572.19;;;21.35;54.60
13709;BME280;54933;51.908;7.730;2023-12-04T04:46:12;100573.81;;;21.36;54.52
13709;BME280;54933;51.908;7.730;2023-12-04T04:48:37;100566.56;;;21.37;54.62
13709;BME280;54933;51.908;7.730;2023-12-04T04:51:02;100563.00;;;21.36;54.60
13709;BME280;54933;51.908;7.730;2023-12-04T04:53:28;100555.97;;;21.35;54.63
13709;BME280;54933;51.908;7.730;2023-12-04T04:55:54;100545.75;;;21.37;54.31
13709;BME280;54933;51.908;7.730;2023-12-04T04:58:19;100550.13;;;21.38;54.77
13709;BME280;54933;51.908;7.730;2023-12-04T05:00:45;100538.47;;;21.38;54.64
13709;BME280;54933;51.908;7.730;2023-12-04T05:03:10;100546.34;;;21.39;54.71
13709;BME280;54933;51.908;7.730;2023-12-04T05:05:36;100538.25;;;21.39;54.68
13709;BME280;54933;51.908;7.730;2023-12-04T05:08:01;100540.94;;;21.39;54.64
13709;BME280;54933;51.908;7.730;2023-12-04T05:10:26;100532.38;;;21.42;54.69
13709;BME280;54933;51.908;7.730;2023-12-04T05:12:51;100525.94;;;21.43;54.43
13709;BME280;54933;51.908;7.730;2023-12-04T05:15:17;100536.53;;;21.45;54.48
13709;BME280;54933;51.908;7.730;2023-12-04T05:17:42;100530.88;;;21.46;54.68
13709;BME280;54933;51.908;7.730;2023-12-04T05:20:07;100531.50;;;21.48;54.59
13709;BME280;54933;51.908;7.730;2023-12-04T05:22:34;100533.13;;;21.49;54.31
13709;BME280;54933;51.908;7.730;2023-12-04T05:24:59;100537.25;;;21.52;54.52
13709;BME280;54933;51.908;7.730;2023-12-04T05:27:24;100529.97;;;21.52;54.41
13709;BME280;54933;51.908;7.730;2023-12-04T05:29:50;100536.59;;;21.57;54.43
13709;BME280;54933;51.908;7.730;2023-12-04T05:32:16;100532.84;;;21.58;54.34
13709;BME280;54933;51.908;7.730;2023-12-04T05:34:41;100527.19;;;21.59;54.39
13709;BME280;54933;51.908;7.730;2023-12-04T05:37:06;100528.63;;;21.62;54.17
13709;BME280;54933;51.908;7.730;2023-12-04T05:39:32;100524.19;;;21.49;54.35
13709;BME280;54933;51.908;7.730;2023-12-04T05:41:57;100520.69;;;21.30;54.39
13709;BME280;54933;51.908;7.730;2023-12-04T05:44:22;100518.13;;;21.17;54.69
13709;BME280;54933;51.908;7.730;2023-12-04T05:46:47;100517.97;;;21.12;55.15
13709;BME280;54933;51.908;7.730;2023-12-04T05:49:13;100516.75;;;21.08;55.20
13709;BME280;54933;51.908;7.730;2023-12-04T05:51:38;100518.25;;;21.04;55.22
13709;BME280;54933;51.908;7.730;2023-12-04T05:54:03;100518.69;;;21.01;55.53
13709;BME280;54933;51.908;7.730;2023-12-04T05:56:29;100518.09;;;20.99;55.45
13709;BME280;54933;51.908;7.730;2023-12-04T05:58:54;100516.41;;;20.98;55.71
13709;BME280;54933;51.908;7.730;2023-12-04T06:01:21;100512.69;;;20.99;55.75
13709;BME280;54933;51.908;7.730;2023-12-04T06:03:46;100515.38;;;20.99;55.99
13709;BME280;54933;51.908;7.730;2023-12-04T06:06:11;100506.84;;;21.02;56.08
13709;BME280;54933;51.908;7.730;2023-12-04T06:08:36;100521.19;;;21.03;55.84
13709;BME280;54933;51.908;7.730;2023-12-04T06:11:02;100520.97;;;21.04;56.10
13709;BME280;54933;51.908;7.730;2023-12-04T06:13:27;100515.56;;;21.04;55.97
13709;BME280;54933;51.908;7.730;2023-12-04T06:15:52;100516.13;;;21.06;55.81
13709;BME280;54933;51.908;7.730;2023-12-04T06:18:17;100510.53;;;21.08;56.00
13709;BME280;54933;51.908;7.730;2023-12-04T06:20:43;100516.28;;;21.11;56.04
13709;BME280;54933;51.908;7.730;2023-12-04T06:23:08;100510.66;;;21.13;56.07
13709;BME280;54933;51.908;7.730;2023-12-04T06:25:33;100510.31;;;21.09;56.04
13709;BME280;54933;51.908;7.730;2023-12-04T06:27:59;100515.56;;;21.04;56.31
13709;BME280;54933;51.908;7.730;2023-12-04T06:30:25;100507.41;;;19.49;53.95
13709;BME280;54933;51.908;7.730;2023-12-04T06:32:50;100512.81;;;19.49;52.16
13709;BME280;54933;51.908;7.730;2023-12-04T06:35:16;100518.66;;;19.33;51.86
13709;BME280;54933;51.908;7.730;2023-12-04T06:37:43;100515.38;;;19.05;49.74
13709;BME280;54933;51.908;7.730;2023-12-04T06:40:08;100531.94;;;19.85;49.69
13709;BME280;54933;51.908;7.730;2023-12-04T06:42:36;100525.34;;;20.18;49.79
13709;BME280;54933;51.908;7.730;2023-12-04T06:45:01;100513.81;;;20.36;50.30
13709;BME280;54933;51.908;7.730;2023-12-04T06:47:28;100516.84;;;20.46;50.61
13709;BME280;54933;51.908;7.730;2023-12-04T06:49:56;100521.97;;;20.54;50.92
13709;BME280;54933;51.908;7.730;2023-12-04T06:52:21;100513.00;;;20.60;51.10
13709;BME280;54933;51.908;7.730;2023-12-04T06:54:46;100510.47;;;20.65;50.82
13709;BME280;54933;51.908;7.730;2023-12-04T06:57:11;100507.94;;;20.70;51.59
13709;BME280;54933;51.908;7.730;2023-12-04T06:59:39;100506.44;;;20.74;51.60
13709;BME280;54933;51.908;7.730;2023-12-04T07:02:05;100502.03;;;20.80;51.77
13709;BME280;54933;51.908;7.730;2023-12-04T07:04:31;100499.50;;;20.85;51.15
13709;BME280;54933;51.908;7.730;2023-12-04T07:06:56;100488.03;;;20.89;51.88
13709;BME280;54933;51.908;7.730;2023-12-04T07:09:23;100486.50;;;20.93;51.26
13709;BME280;54933;51.908;7.730;2023-12-04T07:11:48;100474.25;;;20.97;51.66
13709;BME280;54933;51.908;7.730;2023-12-04T07:14:13;100465.72;;;21.00;51.98
13709;BME280;54933;51.908;7.730;2023-12-04T07:16:42;100464.22;;;21.04;52.04
13709;BME280;54933;51.908;7.730;2023-12-04T07:19:09;100458.38;;;21.07;52.09
13709;BME280;54933;51.908;7.730;2023-12-04T07:21:34;100460.63;;;21.10;52.15
13709;BME280;54933;51.908;7.730;2023-12-04T07:24:00;100465.78;;;21.12;52.07
13709;BME280;54933;51.908;7.730;2023-12-04T07:26:25;100459.94;;;21.15;52.10
13709;BME280;54933;51.908;7.730;2023-12-04T07:28:50;100460.53;;;21.17;52.21
13709;BME280;54933;51.908;7.730;2023-12-04T07:31:15;100466.31;;;21.20;52.09
13709;BME280;54933;51.908;7.730;2023-12-04T07:33:41;100458.38;;;21.25;52.13
13709;BME280;54933;51.908;7.730;2023-12-04T07:36:06;100457.91;;;21.28;52.50
13709;BME280;54933;51.908;7.730;2023-12-04T07:38:32;100454.16;;;21.29;52.44
13709;BME280;54933;51.908;7.730;2023-12-04T07:40:57;100455.34;;;21.33;52.33
13709;BME280;54933;51.908;7.730;2023-12-04T07:43:22;100451.59;;;21.34;52.43
13709;BME280;54933;51.908;7.730;2023-12-04T07:45:47;100455.97;;;21.35;52.32
13709;BME280;54933;51.908;7.730;2023-12-04T07:48:13;100452.97;;;21.25;52.60
13709;BME280;54933;51.908;7.730;2023-12-04T07:50:38;100448.78;;;20.87;52.54
13709;BME280;54933;51.908;7.730;2023-12-04T07:53:03;100438.09;;;20.00;51.48
13709;BME280;54933;51.908;7.730;2023-12-04T07:55:29;100446.22;;;20.49;50.78
13709;BME280;54933;51.908;7.730;2023-12-04T07:57:54;100440.38;;;20.77;50.68
13709;BME280;54933;51.908;7.730;2023-12-04T08:00:21;100437.53;;;20.90;50.88
13709;BME280;54933;51.908;7.730;2023-12-04T08:02:48;100439.53;;;21.01;51.42
13709;BME280;54933;51.908;7.730;2023-12-04T08:05:13;100423.25;;;21.07;51.51
13709;BME280;54933;51.908;7.730;2023-12-04T08:07:39;100418.00;;;21.12;51.72
13709;BME280;54933;51.908;7.730;2023-12-04T08:10:05;100412.13;;;21.15;51.78
13709;BME280;54933;51.908;7.730;2023-12-04T08:12:31;100413.53;;;21.18;52.04
13709;BME280;54933;51.908;7.730;2023-12-04T08:14:56;100413.69;;;21.23;51.73
13709;BME280;54933;51.908;7.730;2023-12-04T08:17:22;100410.53;;;21.26;51.84
13709;BME280;54933;51.908;7.730;2023-12-04T08:19:47;100404.94;;;21.27;51.78
13709;BME280;54933;51.908;7.730;2023-12-04T08:22:12;100399.28;;;21.29;51.70
13709;BME280;54933;51.908;7.730;2023-12-04T08:24:37;100399.63;;;21.32;51.83
13709;BME280;54933;51.908;7.730;2023-12-04T08:27:03;100402.94;;;21.34;51.96
13709;BME280;54933;51.908;7.730;2023-12-04T08:29:28;100401.69;;;21.37;51.86
13709;BME280;54933;51.908;7.730;2023-12-04T08:31:53;100397.69;;;21.39;52.02
13709;BME280;54933;51.908;7.730;2023-12-04T08:34:19;100402.63;;;21.42;51.85
13709;BME280;54933;51.908;7.730;2023-12-04T08:36:44;100397.81;;;21.44;51.98
13709;BME280;54933;51.908;7.730;2023-12-04T08:39:09;100388.66;;;21.45;52.28
13709;BME280;54933;51.908;7.730;2023-12-04T08:41:34;100387.63;;;21.46;51.99
13709;BME280;54933;51.908;7.730;2023-12-04T08:44:00;100378.44;;;21.47;52.14
13709;BME280;54933;51.908;7.730;2023-12-04T08:46:25;100377.16;;;21.50;52.22
13709;BME280;54933;51.908;7.730;2023-12-04T08:48:51;100378.56;;;21.52;52.26
13709;BME280;54933;51.908;7.730;2023-12-04T08:51:16;100371.91;;;21.55;52.26
13709;BME280;54933;51.908;7.730;2023-12-04T08:53:42;100371.66;;;21.57;52.06
13709;BME280;54933;51.908;7.730;2023-12-04T08:56:08;100366.03;;;21.58;51.97
13709;BME280;54933;51.908;7.730;2023-12-04T08:58:34;100366.41;;;21.62;52.34
13709;BME280;54933;51.908;7.730;2023-12-04T09:00:59;100365.34;;;21.63;52.23
13709;BME280;54933;51.908;7.730;2023-12-04T09:03:24;100365.94;;;21.65;52.23
13709;BME280;54933;51.908;7.730;2023-12-04T09:05:49;100355.72;;;21.67;51.90
13709;BME280;54933;51.908;7.730;2023-12-04T09:08:16;100356.28;;;21.69;51.98
13709;BME280;54933;51.908;7.730;2023-12-04T09:10:42;100360.66;;;21.70;52.05
13709;BME280;54933;51.908;7.730;2023-12-04T09:13:07;100361.47;;;21.70;52.12
13709;BME280;54933;51.908;7.730;2023-12-04T09:15:32;100355.81;;;21.72;52.01
13709;BME280;54933;51.908;7.730;2023-12-04T09:17:58;100366.19;;;21.75;52.05
13709;BME280;54933;51.908;7.730;2023-12-04T09:20:23;100361.41;;;21.77;52.42
13709;BME280;54933;51.908;7.730;2023-12-04T09:22:48;100352.25;;;21.78;52.08
13709;BME280;54933;51.908;7.730;2023-12-04T09:25:14;100360.34;;;21.78;52.23
13709;BME280;54933;51.908;7.730;2023-12-04T09:27:39;100360.97;;;21.80;52.16
13709;BME280;54933;51.908;7.730;2023-12-04T09:30:05;100347.44;;;21.80;52.31
13709;BME280;54933;51.908;7.730;2023-12-04T09:32:30;100364.47;;;21.80;52.35
13709;BME280;54933;51.908;7.730;2023-12-04T09:34:56;100356.13;;;21.82;52.16
13709;BME280;54933;51.908;7.730;2023-12-04T09:37:21;100352.38;;;21.83;52.46
13709;BME280;54933;51.908;7.730;2023-12-04T09:39:46;100354.00;;;21.84;52.32
13709;BME280;54933;51.908;7.730;2023-12-04T09:42:15;100352.16;;;21.84;52.35
13709;BME280;54933;51.908;7.730;2023-12-04T09:44:42;100355.66;;;21.85;52.23
13709;BME280;54933;51.908;7.730;2023-12-04T09:47:08;100358.94;;;21.87;52.32
13709;BME280;54933;51.908;7.730;2023-12-04T09:49:34;100342.72;;;21.87;52.37
13709;BME280;54933;51.908;7.730;2023-12-04T09:52:01;100345.19;;;21.88;52.57
13709;BME280;54933;51.908;7.730;2023-12-04T09:54:28;100349.81;;;21.88;52.36
13709;BME280;54933;51.908;7.730;2023-12-04T09:56:55;100342.25;;;21.90;52.35
13709;BME280;54933;51.908;7.730;2023-12-04T09:59:23;100329.56;;;21.90;52.36
13709;BME280;54933;51.908;7.730;2023-12-04T10:01:49;100318.75;;;21.90;52.11
13709;BME280;54933;51.908;7.730;2023-12-04T10:04:15;100326.03;;;21.90;52.17
13709;BME280;54933;51.908;7.730;2023-12-04T10:06:40;100320.16;;;21.93;52.28
13709;BME280;54933;51.908;7.730;2023-12-04T10:09:07;100307.22;;;21.95;52.18
13709;BME280;54933;51.908;7.730;2023-12-04T10:11:42;100303.69;;;21.94;52.25
13709;BME280;54933;51.908;7.730;2023-12-04T10:14:14;100293.13;;;21.93;52.23
13709;BME280;54933;51.908;7.730;2023-12-04T10:16:40;100301.25;;;21.93;52.44
13709;BME280;54933;51.908;7.730;2023-12-04T10:19:15;100290.41;;;21.93;52.31
13709;BME280;54933;51.908;7.730;2023-12-04T10:21:45;100287.47;;;21.94;52.28
13709;BME280;54933;51.908;7.730;2023-12-04T10:24:11;100286.41;;;21.95;52.53
13709;BME280;54933;51.908;7.730;2023-12-04T10:26:36;100274.75;;;21.95;52.18
13709;BME280;54933;51.908;7.730;2023-12-04T10:29:03;100265.59;;;21.96;52.02
13709;BME280;54933;51.908;7.730;2023-12-04T10:31:37;100268.06;;;21.97;52.24
13709;BME280;54933;51.908;7.730;2023-12-04T10:34:02;100264.53;;;21.97;52.16
13709;BME280;54933;51.908;7.730;2023-12-04T10:36:30;100256.41;;;21.97;52.25
13709;BME280;54933;51.908;7.730;2023-12-04T10:39:01;100255.56;;;21.96;52.60
13709;BME280;54933;51.908;7.730;2023-12-04T10:41:30;100257.25;;;21.97;52.32
13709;BME280;54933;51.908;7.730;2023-12-04T10:43:56;100248.28;;;21.97;52.19
13709;BME280;54933;51.908;7.730;2023-12-04T10:46:21;100247.22;;;21.98;52.12
13709;BME280;54933;51.908;7.730;2023-12-04T10:48:48;100241.00;;;21.97;52.25
13709;BME280;54933;51.908;7.730;2023-12-04T10:51:15;100229.94;;;21.99;52.15
13709;BME280;54933;51.908;7.730;2023-12-04T10:53:42;100231.00;;;21.98;52.42
13709;BME280;54933;51.908;7.730;2023-12-04T10:56:19;100221.84;;;21.99;52.47
13709;BME280;54933;51.908;7.730;2023-12-04T10:58:48;100222.66;;;21.99;52.19
13709;BME280;54933;51.908;7.730;2023-12-04T11:01:16;100219.97;;;21.99;52.12
13709;BME280;54933;51.908;7.730;2023-12-04T11:03:51;100218.06;;;22.00;52.28
13709;BME280;54933;51.908;7.730;2023-12-04T11:06:20;100211.00;;;21.99;52.31
13709;BME280;54933;51.908;7.730;2023-12-04T11:08:48;100218.66;;;22.02;52.11
13709;BME280;54933;51.908;7.730;2023-12-04T11:11:15;100211.84;;;21.99;52.69
13709;BME280;54933;51.908;7.730;2023-12-04T11:13:48;100211.59;;;22.01;52.19
13709;BME280;54933;51.908;7.730;2023-12-04T11:16:45;100200.78;;;22.01;52.18
13709;BME280;54933;51.908;7.730;2023-12-04T11:19:28;100195.94;;;22.03;52.23
13709;BME280;54933;51.908;7.730;2023-12-04T11:21:57;100192.66;;;22.01;52.19
13709;BME280;54933;51.908;7.730;2023-12-04T11:24:23;100188.06;;;22.01;52.30
13709;BME280;54933;51.908;7.730;2023-12-04T11:26:49;100181.84;;;22.01;52.28
13709;BME280;54933;51.908;7.730;2023-12-04T11:29:15;100187.25;;;22.01;52.22
13709;BME280;54933;51.908;7.730;2023-12-04T11:31:41;100177.22;;;22.01;52.37
13709;BME280;54933;51.908;7.730;2023-12-04T11:34:08;100175.34;;;22.02;52.29
13709;BME280;54933;51.908;7.730;2023-12-04T11:36:34;100171.81;;;22.01;52.37
13709;BME280;54933;51.908;7.730;2023-12-04T11:39:00;100171.59;;;22.03;51.89
13709;BME280;54933;51.908;7.730;2023-12-04T11:41:25;100168.88;;;22.03;52.29
13709;BME280;54933;51.908;7.730;2023-12-04T11:43:52;100167.25;;;22.02;52.49
13709;BME280;54933;51.908;7.730;2023-12-04T11:46:20;100165.63;;;22.01;52.19
13709;BME280;54933;51.908;7.730;2023-12-04T11:48:48;100163.47;;;22.03;52.50
13709;BME280;54933;51.908;7.730;2023-12-04T11:51:44;100156.41;;;22.02;52.27
13709;BME280;54933;51.908;7.730;2023-12-04T11:54:00;100153.47;;;22.03;52.39
13709;BME280;54933;51.908;7.730;2023-12-04T11:56:26;100148.91;;;22.04;52.27
13709;BME280;54933;51.908;7.730;2023-12-04T11:58:51;100147.22;;;22.03;52.47
13709;BME280;54933;51.908;7.730;2023-12-04T12:01:17;100138.88;;;22.04;52.44
13709;BME280;54933;51.908;7.730;2023-12-04T12:03:43;100141.56;;;22.04;52.40
13709;BME280;54933;51.908;7.730;2023-12-04T12:06:09;100143.72;;;22.02;52.60
13709;BME280;54933;51.908;7.730;2023-12-04T12:08:34;100134.78;;;22.02;52.50
13709;BME280;54933;51.908;7.730;2023-12-04T12:11:00;100137.47;;;22.02;52.41
13709;BME280;54933;51.908;7.730;2023-12-04T12:13:25;100138.56;;;22.01;52.40
13709;BME280;54933;51.908;7.730;2023-12-04T12:15:51;100139.00;;;21.98;52.12
13709;BME280;54933;51.908;7.730;2023-12-04T12:18:17;100138.34;;;21.91;52.43
13709;BME280;54933;51.908;7.730;2023-12-04T12:20:43;100140.56;;;21.94;52.50
13709;BME280;54933;51.908;7.730;2023-12-04T12:23:09;100142.91;;;21.90;52.58
13709;BME280;54933;51.908;7.730;2023-12-04T12:25:35;100141.75;;;21.86;52.68
13709;BME280;54933;51.908;7.730;2023-12-04T12:28:04;100134.56;;;21.80;53.04
13709;BME280;54933;51.908;7.730;2023-12-04T12:30:29;100127.63;;;21.73;52.71
13709;BME280;54933;51.908;7.730;2023-12-04T12:32:55;100128.78;;;21.65;53.07
13709;BME280;54933;51.908;7.730;2023-12-04T12:35:20;100128.47;;;21.62;53.36
13709;BME280;54933;51.908;7.730;2023-12-04T12:37:45;100129.38;;;21.55;53.06
13709;BME280;54933;51.908;7.730;2023-12-04T12:40:11;100126.81;;;21.61;53.40
13709;BME280;54933;51.908;7.730;2023-12-04T12:42:37;100117.66;;;21.62;53.39
13709;BME280;54933;51.908;7.730;2023-12-04T12:45:07;100119.03;;;21.64;53.41